CheckWX is a tool to help pilots better visualize weather data.  It is not intended as a substitute for an official pre-flight weather briefing.

18:03:31 UTC

LFBH TAF
La Rochelle-Île de Ré Airport
La Rochelle/Île de Ré, France
TAF AMD LFBH 171707Z 1718/1818 18005KT CAVOK BECMG 1806/1809 15015KT BECMG 1814/1816 21010KT BKN010

Feb-17@
18:00 UTC

Feb-17 @ 18:00 UTC

Feb-18@
06:00 UTC

Feb-18 @ 06:00 UTC

TAF AMD LFBH 171707Z 1718/1818 18005KT CAVOK
Wind
  • 180° at 5 KTS
Visibility
10,000+ meters
Conditions
No significant weather
Cloud Levels
  • No significant clouds

Feb-18@
06:00 UTC

Feb-18 @ 06:00 UTC

Feb-18@
14:00 UTC

Feb-18 @ 14:00 UTC

BECMG 1806/1809 15015KT

Becoming

BecomingConditions expected by Mon, Feb 18, 2019 @ 09:00 UTC

Wind
  • 150° at 15 KTS
Visibility
10,000+ meters
Conditions
No significant weather
Cloud Levels
  • No significant clouds

Feb-18@
14:00 UTC

Feb-18 @ 14:00 UTC

Feb-18@
18:00 UTC

Feb-18 @ 18:00 UTC

BECMG 1814/1816 21010KT BKN010

Becoming

BecomingConditions expected by Mon, Feb 18, 2019 @ 16:00 UTC

Wind
  • 210° at 10 KTS
Visibility
10,000+ meters
Conditions
No significant weather
Cloud Levels
  • Broken at 1,000' AGL